Main page
METAR-TAF:

METAR-TAF

Airports :

Lansing Municipal Airport

Lansing, Illinois, United States

latitude: 41-32-24N, longitude: 087-31-56W, elevation: 617 ft

Current weather observation

The report was made 23 minutes ago, at 18:15 UTC
Wind 13 mph from the North/Northeast with gusts up to 22 mph, varying between North and Northeast
Temperature 39°F
Humidity 81%
Pressure 30.30 in. Hg
Visibility: 10 miles
Overcast at a height of 1900 ft

METAR: KIGQ 241815Z AUTO 03011G19KT 350V050 10SM OVC019 04/01 A3030 RMK AO2 T00430008

Time: 13:38 (18:38 UTC)


TAF: missing

Weather observations and forecasts of more than 4000 airports (METAR and TAF reports).

The available stations are represented by yellow and red dots on the map.

Hover mouse over dot to see the name of the station.

Then click to see weather observations and forecasts.

To change the map : click on the green buttons with a black cross to zoom in, on the green button with a dash to zoom out, or on the green arrows for adjacent maps.


METAR-TAF: